Time;durP1;ratioP1;P1;durP2;ratioP2;P2;SDS_P1;SDS_P2;PMS_P1;PMS_P2;Temp;Humidity;BMP_temperature;BMP_pressure;BME280_temperature;BME280_humidity;BME280_pressure;Samples;Min_cycle;Max_cycle;Signal;HPM_P1;HPM_P2
2021/04/01 00:00:44;;;;;;;20.70;17.55;;;;;;;14.93;59.76;100861.06;4825473;28;98674;-64
2021/04/01 00:03:10;;;;;;;19.77;17.63;;;;;;;14.87;59.96;100854.91;4824222;28;98434;-60
2021/04/01 00:05:36;;;;;;;18.88;16.77;;;;;;;14.89;60.00;100854.59;4824253;28;107825;-63
2021/04/01 00:08:02;;;;;;;19.77;17.48;;;;;;;14.87;59.92;100845.94;4823817;28;116883;-61
2021/04/01 00:10:32;;;;;;;19.10;16.88;;;;;;;14.85;59.75;100840.78;4824802;28;98489;-61
2021/04/01 00:12:58;;;;;;;20.48;17.42;;;;;;;14.82;59.85;100844.09;4824257;28;98017;-64
2021/04/01 00:15:26;;;;;;;20.02;17.27;;;;;;;14.79;59.94;100836.53;4806231;28;116073;-64
2021/04/01 00:17:52;;;;;;;19.10;17.05;;;;;;;14.79;59.94;100835.72;4807134;28;98386;-63
2021/04/01 00:20:18;;;;;;;22.23;18.25;;;;;;;14.78;59.98;100834.91;4823734;28;127819;-60
2021/04/01 00:22:44;;;;;;;22.27;17.83;;;;;;;14.70;59.79;100832.81;4825007;28;98168;-61
2021/04/01 00:25:12;;;;;;;22.55;17.77;;;;;;;14.72;59.88;100830.63;4825523;28;97673;-61
2021/04/01 00:27:38;;;;;;;21.10;16.85;;;;;;;14.69;59.82;100836.59;4823644;28;99217;-63
2021/04/01 00:30:06;;;;;;;19.58;17.05;;;;;;;14.64;60.15;100831.25;4824270;28;98620;-60
2021/04/01 00:32:32;;;;;;;19.25;16.60;;;;;;;14.64;60.22;100820.38;4825712;28;98355;-61
2021/04/01 00:34:58;;;;;;;19.40;16.70;;;;;;;14.61;59.79;100818.25;4823102;28;116457;-63
2021/04/01 00:37:24;;;;;;;18.90;16.85;;;;;;;14.60;59.88;100811.22;4822074;28;100386;-60
2021/04/01 00:39:50;;;;;;;18.10;16.13;;;;;;;14.56;60.19;100808.25;4823830;28;120812;-63
2021/04/01 00:42:16;;;;;;;18.83;16.23;;;;;;;14.55;60.03;100806.63;4824635;28;98142;-63
2021/04/01 00:44:43;;;;;;;19.70;15.85;;;;;;;14.51;60.03;100807.50;4823898;28;117125;-63
2021/04/01 00:47:09;;;;;;;19.45;15.60;;;;;;;14.49;60.01;100807.75;4824810;28;98196;-64
2021/04/01 00:49:39;;;;;;;19.95;14.95;;;;;;;14.45;60.20;100803.97;4824224;28;98368;-61
2021/04/01 00:52:09;;;;;;;18.70;15.48;;;;;;;14.40;60.20;100807.56;4822130;28;98032;-64
2021/04/01 00:54:35;;;;;;;18.20;15.68;;;;;;;14.43;59.90;100798.84;4824022;28;98361;-64
2021/04/01 00:57:03;;;;;;;18.58;15.40;;;;;;;14.41;60.04;100795.59;4838520;28;98457;-63
2021/04/01 00:59:29;;;;;;;18.27;14.60;;;;;;;14.41;60.03;100792.09;4836731;28;121076;-64
2021/04/01 01:02:04;;;;;;;17.25;14.68;;;;;;;14.39;60.03;100789.66;4822072;28;116200;-63
2021/04/01 01:04:31;;;;;;;16.92;13.88;;;;;;;14.35;60.46;100794.03;4822606;28;97972;-64
2021/04/01 01:06:57;;;;;;;15.43;13.82;;;;;;;14.32;60.09;100794.59;4824498;28;98487;-60
2021/04/01 01:09:24;;;;;;;15.60;13.57;;;;;;;14.30;60.32;100793.25;4823102;28;99158;-61
2021/04/01 01:11:51;;;;;;;14.40;12.45;;;;;;;14.27;60.47;100783.81;4837839;28;97926;-60
2021/04/01 01:14:17;;;;;;;15.57;12.40;;;;;;;14.26;59.94;100793.00;4823447;28;98251;-63
2021/04/01 01:16:43;;;;;;;15.32;12.65;;;;;;;14.24;60.38;100787.88;4824476;28;98432;-63
2021/04/01 01:19:09;;;;;;;16.30;12.35;;;;;;;14.21;60.45;100793.88;4822727;28;98855;-63
2021/04/01 01:21:35;;;;;;;14.88;12.45;;;;;;;14.21;60.17;100785.72;4822014;28;98043;-61
2021/04/01 01:24:01;;;;;;;15.27;12.20;;;;;;;14.17;60.22;100778.47;4805768;28;110090;-63
2021/04/01 01:26:27;;;;;;;13.73;12.15;;;;;;;14.13;60.36;100780.94;4821885;28;98096;-64
2021/04/01 01:28:53;;;;;;;14.60;11.50;;;;;;;14.14;60.26;100781.72;4820443;28;128077;-61
2021/04/01 01:31:21;;;;;;;13.15;10.75;;;;;;;14.12;60.24;100778.50;4823121;28;127510;-63
2021/04/01 01:33:48;;;;;;;12.75;10.85;;;;;;;14.08;60.28;100775.56;4823971;28;97988;-60
2021/04/01 01:36:16;;;;;;;13.02;10.95;;;;;;;14.08;60.31;100780.16;4823146;28;99306;-63
2021/04/01 01:38:42;;;;;;;11.98;10.63;;;;;;;14.07;60.35;100767.69;4823051;28;99254;-60
2021/04/01 01:41:08;;;;;;;12.32;9.63;;;;;;;14.05;60.21;100764.47;4823873;28;98034;-60
2021/04/01 01:43:35;;;;;;;12.93;10.90;;;;;;;14.03;60.53;100764.75;4823344;28;98166;-63
2021/04/01 01:46:01;;;;;;;12.80;9.93;;;;;;;14.05;60.30;100765.28;4836505;28;128523;-63
2021/04/01 01:48:27;;;;;;;11.13;9.77;;;;;;;13.96;60.54;100773.19;4808798;28;98349;-63
2021/04/01 01:50:53;;;;;;;10.85;9.73;;;;;;;13.94;60.34;100767.25;4824819;28;117720;-61
2021/04/01 01:53:19;;;;;;;11.68;10.10;;;;;;;13.95;60.10;100768.03;4825565;28;116920;-63
2021/04/01 01:55:45;;;;;;;10.98;9.65;;;;;;;13.91;60.54;100759.69;4826377;28;98604;-63
2021/04/01 01:58:11;;;;;;;10.75;9.65;;;;;;;13.90;60.37;100754.53;4825478;28;110369;-63
2021/04/01 02:00:47;;;;;;;12.48;9.75;;;;;;;13.85;60.75;100763.53;4826483;28;98058;-63
2021/04/01 02:03:13;;;;;;;10.80;9.02;;;;;;;13.82;60.73;100766.78;4827021;28;97839;-63
2021/04/01 02:05:40;;;;;;;11.48;9.18;;;;;;;13.81;60.63;100767.09;4826126;28;98399;-63
2021/04/01 02:08:07;;;;;;;10.80;8.68;;;;;;;13.79;60.76;100761.13;4825494;28;98359;-63
2021/04/01 02:10:36;;;;;;;10.57;9.25;;;;;;;13.78;60.55;100757.59;4826338;28;98153;-63
2021/04/01 02:13:03;;;;;;;10.85;9.15;;;;;;;13.78;60.77;100762.22;4826192;28;102438;-63
2021/04/01 02:15:36;;;;;;;12.52;8.93;;;;;;;13.71;60.52;100751.69;4825095;28;98228;-64
2021/04/01 02:18:06;;;;;;;9.43;7.93;;;;;;;13.68;60.76;100754.97;4826333;28;97617;-61
2021/04/01 02:20:40;;;;;;;11.93;8.90;;;;;;;13.68;60.73;100744.94;4826116;28;98073;-63
2021/04/01 02:23:10;;;;;;;9.82;8.15;;;;;;;13.67;60.73;100751.44;4826251;28;97867;-63
2021/04/01 02:25:37;;;;;;;9.45;8.40;;;;;;;13.66;60.66;100746.31;4826070;28;98977;-63
2021/04/01 02:28:04;;;;;;;9.55;8.55;;;;;;;13.61;60.79;100754.47;4823727;28;98580;-64
2021/04/01 02:30:31;;;;;;;9.40;8.02;;;;;;;13.59;60.84;100749.31;4826088;28;97981;-60
2021/04/01 02:32:57;;;;;;;9.68;7.97;;;;;;;13.59;60.38;100738.50;4826543;28;97722;-63
2021/04/01 02:35:23;;;;;;;11.52;8.13;;;;;;;13.67;60.71;100742.50;4825995;28;98681;-60
2021/04/01 02:37:49;;;;;;;8.63;7.47;;;;;;;13.72;60.22;100740.59;4804859;28;114283;-61
2021/04/01 02:40:15;;;;;;;9.55;7.75;;;;;;;13.74;59.99;100741.09;4807174;29;98144;-63
2021/04/01 02:42:42;;;;;;;8.60;7.70;;;;;;;13.78;59.80;100735.94;4821806;28;98057;-64
2021/04/01 02:45:09;;;;;;;9.80;8.07;;;;;;;13.79;59.94;100721.28;4813125;28;98244;-64
2021/04/01 02:47:35;;;;;;;8.50;7.32;;;;;;;13.82;59.95;100733.47;4827083;28;98897;-63
2021/04/01 02:50:02;;;;;;;8.45;7.13;;;;;;;13.82;59.73;100734.28;4825202;28;98338;-63
2021/04/01 02:52:28;;;;;;;8.68;7.40;;;;;;;13.79;59.75;100724.00;4839568;28;98238;-63
2021/04/01 02:54:54;;;;;;;8.73;7.00;;;;;;;13.82;59.65;100722.63;4824324;28;122759;-60
2021/04/01 02:57:21;;;;;;;8.23;7.13;;;;;;;13.75;59.57;100721.06;4824127;28;128725;-63
2021/04/01 02:59:47;;;;;;;7.90;7.10;;;;;;;13.75;59.65;100722.94;4825491;28;98362;-61
2021/04/01 03:02:14;;;;;;;9.23;7.18;;;;;;;13.73;59.69;100720.53;4825320;28;97932;-63
2021/04/01 03:04:41;;;;;;;8.32;7.28;;;;;;;13.69;59.58;100714.06;4825068;28;98476;-63
2021/04/01 03:07:07;;;;;;;8.23;7.07;;;;;;;13.69;59.75;100716.75;4825397;28;98672;-61
2021/04/01 03:09:34;;;;;;;8.68;6.88;;;;;;;13.67;59.68;100715.41;4823299;28;97964;-63
2021/04/01 03:12:01;;;;;;;9.48;7.20;;;;;;;13.64;59.70;100716.81;4826151;28;97795;-61
2021/04/01 03:14:27;;;;;;;8.25;7.10;;;;;;;13.62;59.71;100720.88;4823721;28;98052;-61
2021/04/01 03:16:53;;;;;;;7.88;7.07;;;;;;;13.59;60.33;100719.53;4824865;28;99046;-64
2021/04/01 03:19:19;;;;;;;8.43;6.57;;;;;;;13.57;59.81;100724.44;4824578;28;118736;-61
2021/04/01 03:21:46;;;;;;;9.65;6.70;;;;;;;13.55;60.08;100729.31;4825763;28;97840;-61
2021/04/01 03:24:12;;;;;;;7.28;6.13;;;;;;;13.54;60.01;100725.00;4825542;28;98919;-63
2021/04/01 03:26:39;;;;;;;7.68;6.82;;;;;;;13.50;60.03;100722.03;4825072;28;98616;-64
2021/04/01 03:29:05;;;;;;;8.40;7.18;;;;;;;13.49;60.19;100725.84;4824442;28;99403;-63
2021/04/01 03:31:31;;;;;;;7.85;6.43;;;;;;;13.46;60.18;100715.56;4825660;28;98104;-61
2021/04/01 03:33:57;;;;;;;8.25;6.55;;;;;;;13.46;60.29;100714.75;4824758;28;98643;-64
2021/04/01 03:36:23;;;;;;;7.57;6.40;;;;;;;13.43;60.27;100715.31;4824914;28;106060;-64
2021/04/01 03:38:50;;;;;;;7.97;6.15;;;;;;;13.40;60.09;100719.41;4824621;28;119635;-60
2021/04/01 03:41:16;;;;;;;7.55;6.35;;;;;;;13.40;60.31;100718.56;4825445;28;98112;-60
2021/04/01 03:43:42;;;;;;;8.20;6.45;;;;;;;13.39;59.97;100712.34;4824663;28;97939;-60
2021/04/01 03:46:10;;;;;;;7.68;6.32;;;;;;;13.37;60.17;100709.13;4824269;28;117604;-61
2021/04/01 03:48:36;;;;;;;8.20;6.45;;;;;;;13.35;60.16;100711.28;4825140;28;97958;-61
2021/04/01 03:51:02;;;;;;;6.68;5.65;;;;;;;13.36;60.47;100720.22;4824942;28;107475;-64
2021/04/01 03:53:28;;;;;;;7.90;6.00;;;;;;;13.33;60.07;100718.09;4825443;28;98126;-63
2021/04/01 03:55:54;;;;;;;8.00;6.18;;;;;;;13.33;60.67;100718.09;4823892;28;128030;-63
2021/04/01 04:01:00;;;;;;;7.90;6.65;;;;;;;13.26;60.64;100718.38;4824206;28;102314;-63
2021/04/01 04:16:24;;;;;;;8.10;6.07;;;;;;;13.16;60.76;100704.88;4821364;28;98389;-63
2021/04/01 04:18:50;;;;;;;7.93;5.93;;;;;;;13.16;61.01;100707.56;4822224;28;98032;-61
2021/04/01 04:21:17;;;;;;;8.05;6.18;;;;;;;13.12;60.78;100707.31;4824731;28;98013;-60
2021/04/01 04:23:46;;;;;;;7.40;5.82;;;;;;;13.11;60.67;100700.28;4822613;28;99256;-63
2021/04/01 04:26:12;;;;;;;8.55;6.32;;;;;;;13.09;60.95;100699.78;4824716;28;98701;-63
2021/04/01 04:28:39;;;;;;;7.07;5.93;;;;;;;13.10;60.99;100709.50;4806812;28;98126;-63
2021/04/01 04:31:05;;;;;;;7.53;6.05;;;;;;;13.07;60.83;100701.94;4823030;28;97784;-63
2021/04/01 04:33:32;;;;;;;7.65;6.07;;;;;;;13.08;60.87;100700.84;4822690;28;100556;-60
2021/04/01 04:35:58;;;;;;;7.57;5.88;;;;;;;13.05;61.13;100698.72;4806901;28;98056;-60
2021/04/01 04:38:25;;;;;;;7.70;6.20;;;;;;;13.03;60.98;100690.84;4824122;28;112008;-63
2021/04/01 04:40:55;;;;;;;7.28;6.32;;;;;;;13.03;60.93;100690.06;4825059;28;97878;-60
2021/04/01 04:43:21;;;;;;;7.53;6.03;;;;;;;13.03;60.95;100696.25;4822654;28;98397;-60
2021/04/01 04:45:47;;;;;;;7.82;6.22;;;;;;;13.01;61.22;100689.53;4822551;28;98365;-60
2021/04/01 04:48:13;;;;;;;7.75;6.07;;;;;;;12.98;60.90;100695.50;4823375;28;127329;-60
2021/04/01 04:50:39;;;;;;;8.18;5.75;;;;;;;13.02;60.72;100694.66;4823867;28;97975;-63
2021/04/01 04:53:05;;;;;;;7.88;6.18;;;;;;;12.99;61.10;100695.19;4821502;28;127893;-63
2021/04/01 04:55:32;;;;;;;7.10;6.30;;;;;;;13.00;61.16;100690.59;4822762;28;98547;-63
2021/04/01 05:05:41;;;;;;;6.95;5.80;;;;;;;13.05;60.86;100687.06;4824081;28;98101;-63
2021/04/01 05:08:07;;;;;;;7.30;6.00;;;;;;;13.07;60.53;100688.41;4821552;28;98322;-60
2021/04/01 05:10:33;;;;;;;8.63;5.85;;;;;;;13.08;61.09;100690.00;4824275;28;97961;-61
2021/04/01 05:15:31;;;;;;;7.53;5.90;;;;;;;13.12;60.94;100685.66;4823816;28;98251;-63
2021/04/01 05:18:13;;;;;;;9.63;6.05;;;;;;;13.15;60.90;100679.69;4824254;28;98054;-61
2021/04/01 05:20:40;;;;;;;8.93;6.18;;;;;;;13.17;60.95;100682.94;4825070;28;97902;-61
2021/04/01 05:23:11;;;;;;;7.50;5.80;;;;;;;13.18;61.07;100683.75;4838171;28;98437;-60
2021/04/01 05:25:37;;;;;;;7.07;5.75;;;;;;;13.19;60.80;100688.06;4823421;28;98537;-61
2021/04/01 05:28:19;;;;;;;8.23;6.18;;;;;;;13.19;61.06;100682.66;4821826;28;98153;-64
2021/04/01 05:30:46;;;;;;;8.85;5.88;;;;;;;13.21;61.08;100691.31;4822474;28;97882;-60
2021/04/01 05:33:13;;;;;;;7.03;5.88;;;;;;;13.25;61.18;100682.38;4823284;28;98143;-63
2021/04/01 05:35:40;;;;;;;9.65;5.75;;;;;;;13.24;61.22;100688.06;4823593;28;98442;-63
2021/04/01 05:38:06;;;;;;;9.27;6.00;;;;;;;13.24;61.36;100688.91;4821121;28;98474;-61
2021/04/01 05:40:32;;;;;;;6.88;5.82;;;;;;;13.25;61.74;100685.09;4855145;28;97966;-60
2021/04/01 05:43:00;;;;;;;8.32;6.13;;;;;;;13.26;61.46;100683.19;4823663;28;98355;-60
2021/04/01 05:45:40;;;;;;;10.38;6.32;;;;;;;13.29;61.49;100690.75;4790414;28;100375;-61
2021/04/01 05:48:13;;;;;;;8.57;6.03;;;;;;;13.29;61.66;100688.06;4821807;28;97745;-61
2021/04/01 06:06:58;;;;;;;7.65;6.63;;;;;;;13.60;61.75;100696.78;4834597;28;99010;-63
2021/04/01 06:09:28;;;;;;;7.55;6.13;;;;;;;13.67;61.21;100693.75;4822577;28;98621;-61
2021/04/01 06:11:58;;;;;;;8.35;6.70;;;;;;;13.71;61.15;100694.81;4829501;28;97818;-61
2021/04/01 06:14:33;;;;;;;9.00;7.22;;;;;;;13.76;60.89;100697.50;4838075;28;97786;-61
2021/04/01 06:17:07;;;;;;;10.57;7.03;;;;;;;13.84;61.33;100705.00;4832318;28;98767;-61
2021/04/01 06:19:35;;;;;;;10.15;7.65;;;;;;;13.93;61.07;100694.38;4836605;28;98989;-64
2021/04/01 06:22:05;;;;;;;10.27;8.07;;;;;;;13.98;61.01;100697.84;4829124;28;98264;-61
2021/04/01 06:24:32;;;;;;;11.25;8.00;;;;;;;14.04;60.92;100695.91;4830446;28;116322;-63
2021/04/01 06:27:22;;;;;;;9.60;7.30;;;;;;;14.05;60.97;100699.41;4825126;28;99402;-61
2021/04/01 06:32:44;;;;;;;9.43;7.57;;;;;;;14.17;61.15;100703.34;4836907;28;97798;-61
2021/04/01 06:40:43;;;;;;;10.52;7.50;;;;;;;14.56;60.17;100702.47;4834509;28;98020;-64
2021/04/01 06:43:22;;;;;;;9.32;7.30;;;;;;;14.71;59.81;100699.59;4841754;28;97815;-61
2021/04/01 06:45:55;;;;;;;8.90;7.85;;;;;;;14.80;60.29;100701.66;4847882;28;100383;-61
2021/04/01 06:48:26;;;;;;;9.27;7.88;;;;;;;14.88;59.97;100709.16;4842265;28;98706;-64
2021/04/01 06:51:07;;;;;;;9.13;7.47;;;;;;;14.93;59.58;100704.50;4838381;28;97953;-61
2021/04/01 06:59:24;;;;;;;10.20;7.00;;;;;;;15.13;59.82;100706.13;4830370;28;98093;-61
2021/04/01 07:01:55;;;;;;;10.15;7.10;;;;;;;15.17;59.88;100709.88;4841234;28;98300;-64
2021/04/01 07:04:23;;;;;;;9.10;7.23;;;;;;;15.20;60.00;100711.97;4822655;28;98032;-61
2021/04/01 07:06:54;;;;;;;9.88;6.93;;;;;;;15.22;60.46;100704.38;4835472;28;98580;-61
2021/04/01 07:12:06;;;;;;;;;;;;;;;15.35;59.68;100702.81;4831916;28;98321;-61
2021/04/01 07:14:32;;;;;;;8.20;7.22;;;;;;;15.36;60.52;100695.47;4848807;28;98025;-63
2021/04/01 07:17:07;;;;;;;11.55;7.10;;;;;;;15.43;60.21;100696.72;4822798;28;120102;-61
2021/04/01 07:22:52;;;;;;;7.90;6.80;;;;;;;15.59;59.71;100691.88;4833449;28;98028;-64
2021/04/01 07:45:14;;;;;;;12.18;7.40;;;;;;;17.39;55.39;100687.44;4828937;28;97797;-61
2021/04/01 07:47:39;;;;;;;8.50;6.60;;;;;;;17.58;55.24;100693.53;4839816;28;98000;-64
2021/04/01 07:50:23;;;;;;;7.50;6.75;;;;;;;17.95;53.64;100682.59;4837571;28;98685;-64
2021/04/01 07:52:59;;;;;;;8.27;6.30;;;;;;;18.01;53.38;100695.00;4840384;28;98245;-64
2021/04/01 07:55:34;;;;;;;7.78;6.35;;;;;;;18.02;53.71;100702.03;4834868;28;98440;-61
2021/04/01 08:01:15;;;;;;;8.18;6.18;;;;;;;18.05;54.44;100690.53;4838929;28;98378;-64
2021/04/01 08:06:23;;;;;;;7.82;6.20;;;;;;;18.13;54.27;100693.28;4837802;28;98031;-64
2021/04/01 08:08:51;;;;;;;7.07;5.80;;;;;;;18.17;54.15;100690.75;4841025;28;98156;-65
2021/04/01 08:11:31;;;;;;;7.60;5.45;;;;;;;18.40;54.45;100697.78;4830422;28;99081;-64
2021/04/01 08:14:16;;;;;;;6.88;5.47;;;;;;;18.59;57.72;100696.72;4832841;28;98521;-64
2021/04/01 08:19:21;;;;;;;6.68;4.82;;;;;;;19.23;56.19;100691.59;4840208;28;98065;-61
2021/04/01 08:21:49;;;;;;;6.93;5.20;;;;;;;19.46;56.00;100688.75;4829684;28;98871;-64
2021/04/01 08:24:23;;;;;;;6.18;4.82;;;;;;;19.69;55.98;100689.38;4838383;28;98028;-65
2021/04/01 08:34:40;;;;;;;6.72;4.93;;;;;;;19.96;56.59;100705.44;4810716;28;98123;-61
2021/04/01 08:37:08;;;;;;;6.53;4.95;;;;;;;19.76;57.12;100700.63;4838423;28;98308;-65
2021/04/01 08:39:36;;;;;;;5.93;5.10;;;;;;;19.67;57.19;100700.66;4840205;28;98101;-64
2021/04/01 08:42:08;;;;;;;6.75;5.20;;;;;;;19.71;57.32;100703.53;4832825;28;98430;-61
2021/04/01 08:45:19;;;;;;;7.20;4.95;;;;;;;19.76;57.10;100708.84;4846747;28;100217;-64
2021/04/01 08:48:13;;;;;;;6.88;4.90;;;;;;;19.82;57.11;100708.38;4825869;28;98035;-61
2021/04/01 08:51:09;;;;;;;6.10;4.88;;;;;;;19.93;56.79;100703.38;4833603;28;98059;-65
2021/04/01 08:54:00;;;;;;;5.82;4.93;;;;;;;20.10;56.86;100703.31;4839583;28;98609;-65
2021/04/01 08:57:02;;;;;;;5.53;4.65;;;;;;;20.13;56.83;100709.28;4834250;28;97806;-65
2021/04/01 08:59:47;;;;;;;5.32;4.45;;;;;;;20.25;56.52;100706.69;4828367;28;97942;-65
2021/04/01 09:02:17;;;;;;;6.40;5.07;;;;;;;20.26;57.13;100702.81;4829438;28;97831;-65
2021/04/01 09:04:48;;;;;;;6.97;5.10;;;;;;;20.20;57.25;100699.44;4835629;28;98497;-61
2021/04/01 09:07:27;;;;;;;7.82;4.80;;;;;;;20.11;57.68;100699.44;4837157;28;98617;-65
2021/04/01 09:09:59;;;;;;;6.60;5.25;;;;;;;20.15;57.38;100688.66;4835895;28;98380;-61
2021/04/01 09:12:29;;;;;;;7.07;5.45;;;;;;;20.42;56.93;100686.66;4823243;28;97808;-61
2021/04/01 09:15:06;;;;;;;7.03;5.43;;;;;;;20.63;56.39;100684.00;4820799;28;98510;-61
2021/04/01 09:17:34;;;;;;;5.70;5.13;;;;;;;21.26;54.51;100687.63;4836278;28;98168;-62
2021/04/01 09:20:20;;;;;;;6.22;4.80;;;;;;;21.75;53.71;100690.66;4838163;28;97841;-61
2021/04/01 09:22:58;;;;;;;6.97;5.53;;;;;;;22.28;52.67;100687.06;4834286;28;97944;-65
2021/04/01 09:25:42;;;;;;;6.13;4.80;;;;;;;23.07;51.32;100681.38;4832333;28;98490;-65
2021/04/01 09:28:10;;;;;;;6.03;5.22;;;;;;;23.17;52.30;100691.88;4833971;28;103070;-61
2021/04/01 09:30:36;;;;;;;6.55;4.97;;;;;;;23.13;52.14;100684.69;4839722;28;97843;-61
2021/04/01 09:33:10;;;;;;;6.28;4.80;;;;;;;23.76;50.79;100684.94;4838329;28;98110;-61
2021/04/01 09:35:40;;;;;;;6.07;4.38;;;;;;;24.32;49.53;100687.59;4828700;28;99477;-65
2021/04/01 09:38:10;;;;;;;6.07;4.70;;;;;;;25.25;46.90;100686.28;4850659;28;98915;-65
2021/04/01 09:40:43;;;;;;;6.68;4.85;;;;;;;26.18;45.06;100686.97;4825780;28;98727;-62
2021/04/01 09:43:22;;;;;;;7.57;4.43;;;;;;;27.73;42.50;100678.94;4839111;28;97943;-62
2021/04/01 09:45:51;;;;;;;8.68;4.40;;;;;;;28.48;41.01;100679.72;4832811;28;98371;-65
2021/04/01 09:48:31;;;;;;;5.57;3.85;;;;;;;29.08;40.33;100679.34;4833713;28;98383;-65
2021/04/01 09:50:59;;;;;;;5.82;3.88;;;;;;;29.87;39.45;100686.03;4835295;28;98249;-62
2021/04/01 09:53:26;;;;;;;6.30;3.60;;;;;;;30.17;39.37;100682.91;4837594;28;97963;-65
2021/04/01 09:55:54;;;;;;;4.43;3.20;;;;;;;29.09;41.71;100678.16;4837799;28;111356;-62
2021/04/01 09:58:39;;;;;;;4.78;3.78;;;;;;;27.79;45.59;100678.25;4833462;28;98836;-62
2021/04/01 10:04:19;;;;;;;5.38;3.80;;;;;;;26.40;47.33;100690.88;4815017;28;98181;-65
2021/04/01 10:06:50;;;;;;;6.90;4.10;;;;;;;26.60;46.33;100697.16;4793121;28;98680;-65
2021/04/01 10:09:17;;;;;;;4.43;3.80;;;;;;;27.23;44.61;100690.19;4830639;28;98222;-62
2021/04/01 10:11:49;;;;;;;4.53;3.85;;;;;;;27.62;43.89;100692.66;4855884;28;98086;-66
2021/04/01 10:14:15;;;;;;;5.28;3.50;;;;;;;27.36;44.35;100697.09;4848286;28;98245;-61
2021/04/01 10:17:05;;;;;;;4.68;3.33;;;;;;;26.79;46.11;100709.28;4838101;28;98349;-61
2021/04/01 10:19:43;;;;;;;4.20;3.70;;;;;;;26.44;47.75;100711.06;4855061;28;114845;-65
2021/04/01 10:22:22;;;;;;;5.13;3.85;;;;;;;26.08;47.83;100706.09;4839006;28;99863;-61
2021/04/01 10:25:12;;;;;;;5.70;4.30;;;;;;;25.84;48.54;100702.50;4835361;28;98095;-61
2021/04/01 10:27:44;;;;;;;5.15;4.03;;;;;;;25.48;48.94;100689.94;4822497;28;98624;-61
2021/04/01 10:30:11;;;;;;;6.22;4.63;;;;;;;25.11;49.44;100692.28;4828581;28;100023;-62
2021/04/01 10:33:36;;;;;;;5.00;4.10;;;;;;;24.82;50.25;100677.03;4839302;28;98009;-65
2021/04/01 10:36:06;;;;;;;5.10;4.10;;;;;;;24.48;50.51;100676.63;4838782;28;98140;-65
2021/04/01 10:38:33;;;;;;;6.05;4.50;;;;;;;24.38;50.90;100679.88;4838473;28;98654;-65
2021/04/01 10:41:06;;;;;;;5.55;3.92;;;;;;;24.42;51.14;100665.06;4833053;28;102569;-65
2021/04/01 10:43:35;;;;;;;4.82;3.95;;;;;;;24.91;49.91;100659.13;4840328;28;97903;-62
2021/04/01 10:46:01;;;;;;;4.68;3.97;;;;;;;25.39;49.02;100648.78;4803712;28;116634;-62
2021/04/01 10:48:33;;;;;;;5.03;3.50;;;;;;;26.03;46.97;100651.19;4836327;28;112449;-65
2021/04/01 10:51:03;;;;;;;;;;;;;;;26.73;45.88;100655.50;4838925;28;98514;-65
2021/04/01 10:53:30;;;;;;;4.10;3.70;;;;;;;26.19;47.26;100647.13;4834225;28;98062;-65
2021/04/01 10:56:08;;;;;;;4.50;3.35;;;;;;;26.19;47.65;100635.28;4836846;28;98789;-61
2021/04/01 10:58:35;;;;;;;4.35;3.70;;;;;;;26.08;48.05;100637.84;4820195;28;100185;-62
2021/04/01 11:01:02;;;;;;;5.72;3.65;;;;;;;26.05;47.88;100644.09;4838979;28;99441;-61
2021/04/01 11:03:31;;;;;;;4.82;3.65;;;;;;;26.02;48.57;100647.63;4840248;28;113788;-61
2021/04/01 11:05:58;;;;;;;4.78;4.03;;;;;;;25.98;48.52;100651.47;4835884;28;98355;-65
2021/04/01 11:08:25;;;;;;;4.20;3.50;;;;;;;25.93;48.56;100652.56;4835234;28;129096;-65
2021/04/01 11:11:00;;;;;;;6.90;4.07;;;;;;;25.98;48.58;100655.03;4817479;28;98520;-65
2021/04/01 11:13:44;;;;;;;5.05;3.88;;;;;;;26.00;48.57;100643.63;4823868;28;98356;-65
2021/04/01 11:16:12;;;;;;;4.80;3.90;;;;;;;25.93;48.84;100630.47;4833831;28;97954;-61
2021/04/01 11:18:47;;;;;;;6.00;3.90;;;;;;;25.73;49.00;100615.91;4845198;28;98751;-62
2021/04/01 11:21:17;;;;;;;5.20;4.30;;;;;;;25.44;49.37;100618.13;4849697;28;98577;-61
2021/04/01 11:23:43;;;;;;;5.18;3.67;;;;;;;25.11;50.21;100621.41;4835193;28;98778;-65
2021/04/01 11:26:09;;;;;;;4.97;3.80;;;;;;;24.86;51.14;100604.28;4851497;28;116689;-61
2021/04/01 11:28:49;;;;;;;5.43;4.25;;;;;;;24.74;50.92;100615.44;4839560;28;109347;-65
2021/04/01 11:31:29;;;;;;;5.03;3.90;;;;;;;25.20;49.88;100605.44;4836087;28;100439;-62
2021/04/01 11:34:00;;;;;;;5.35;3.65;;;;;;;25.83;48.23;100600.75;4838555;28;98373;-65
2021/04/01 11:36:29;;;;;;;5.50;3.58;;;;;;;26.90;46.12;100605.19;4839145;28;98146;-65
2021/04/01 11:38:57;;;;;;;4.38;3.47;;;;;;;27.92;44.13;100600.44;4833545;28;98713;-65
2021/04/01 11:41:25;;;;;;;5.25;3.10;;;;;;;27.86;44.25;100611.06;4841001;28;98989;-62
2021/04/01 11:43:53;;;;;;;4.55;3.10;;;;;;;27.71;45.26;100617.63;4837981;28;98438;-62
2021/04/01 11:46:30;;;;;;;3.53;2.85;;;;;;;27.42;45.48;100620.88;4807905;28;98452;-65
2021/04/01 11:48:58;;;;;;;5.45;3.10;;;;;;;27.31;46.41;100619.97;4855661;28;98206;-65
2021/04/01 11:51:33;;;;;;;3.17;2.83;;;;;;;27.27;46.21;100613.56;4833008;28;98006;-62
2021/04/01 11:54:00;;;;;;;4.97;3.17;;;;;;;27.27;45.89;100615.53;4836581;28;98029;-62
2021/04/01 11:56:42;;;;;;;4.20;3.00;;;;;;;26.95;47.12;100615.13;4833841;28;97923;-65
2021/04/01 11:59:13;;;;;;;;;;;;;;;27.42;46.34;100598.72;4837412;28;98230;-66
2021/04/01 12:01:54;;;;;;;3.47;3.10;;;;;;;27.11;46.61;100597.19;4837763;28;104728;-66
2021/04/01 12:04:22;;;;;;;4.60;3.03;;;;;;;27.28;46.05;100598.59;4840298;28;98103;-62
2021/04/01 12:06:48;;;;;;;5.07;2.85;;;;;;;27.45;46.20;100588.88;4837174;28;98146;-62
2021/04/01 12:09:15;;;;;;;4.45;2.95;;;;;;;27.47;46.12;100588.50;4831467;28;118768;-62
2021/04/01 12:11:45;;;;;;;3.63;2.63;;;;;;;27.36;46.14;100588.41;4837134;28;98486;-66
2021/04/01 12:14:16;;;;;;;3.65;3.03;;;;;;;27.13;47.04;100585.75;4831467;28;98324;-62
2021/04/01 12:16:42;;;;;;;3.85;3.22;;;;;;;26.97;47.29;100582.38;4832832;28;98205;-66
2021/04/01 12:19:08;;;;;;;4.20;2.65;;;;;;;26.98;47.16;100583.97;4838142;28;98368;-66
2021/04/01 12:21:35;;;;;;;3.30;2.90;;;;;;;26.92;47.30;100578.75;4832495;28;113240;-62
2021/04/01 12:24:06;;;;;;;5.63;2.92;;;;;;;26.78;47.47;100586.06;4835091;28;98633;-66
2021/04/01 12:26:48;;;;;;;4.03;2.90;;;;;;;26.73;48.05;100578.09;4841796;28;97795;-66
2021/04/01 12:29:15;;;;;;;3.88;3.00;;;;;;;26.60;48.58;100566.47;4835801;28;99150;-66
2021/04/01 12:31:53;;;;;;;4.35;2.95;;;;;;;26.90;47.44;100566.47;4838697;28;118765;-62
2021/04/01 12:34:30;;;;;;;3.80;2.63;;;;;;;27.04;47.32;100565.84;4839667;28;98450;-66
2021/04/01 12:36:59;;;;;;;4.05;2.67;;;;;;;27.07;47.14;100570.63;4834541;28;98523;-62
2021/04/01 12:39:44;;;;;;;5.22;2.80;;;;;;;26.78;47.91;100563.94;4839462;28;101108;-62
2021/04/01 12:42:12;;;;;;;3.50;2.90;;;;;;;26.41;48.75;100565.41;4840286;28;98914;-66
2021/04/01 12:44:43;;;;;;;4.60;3.08;;;;;;;26.07;49.92;100552.63;4833297;28;98865;-62
2021/04/01 12:47:09;;;;;;;4.22;3.08;;;;;;;25.87;49.65;100555.47;4839763;28;97844;-62
2021/04/01 12:49:36;;;;;;;5.13;3.17;;;;;;;25.61;50.53;100555.34;4840462;28;98851;-65
2021/04/01 12:52:04;;;;;;;4.95;3.00;;;;;;;25.38;50.40;100549.81;4833093;28;98656;-66
2021/04/01 12:54:35;;;;;;;4.63;3.17;;;;;;;25.26;50.86;100538.94;4834609;28;98584;-62
2021/04/01 12:57:05;;;;;;;;;;;;;;;25.26;50.50;100531.47;4834855;28;97931;-65
2021/04/01 12:59:41;;;;;;;4.70;3.53;;;;;;;24.84;51.41;100526.69;4837115;28;99633;-65
2021/04/01 13:02:10;;;;;;;4.25;3.65;;;;;;;24.82;51.29;100526.25;4839560;28;98587;-61
2021/04/01 13:04:38;;;;;;;3.95;3.58;;;;;;;24.79;51.33;100534.44;4833937;28;98013;-61
2021/04/01 13:12:14;;;;;;;6.63;4.40;;;;;;;24.45;52.41;100543.16;4833079;28;98734;-66
2021/04/01 13:14:40;;;;;;;6.30;4.30;;;;;;;24.45;52.26;100539.63;4838865;28;98106;-62
2021/04/01 13:17:07;;;;;;;5.13;4.07;;;;;;;24.58;51.72;100538.34;4833341;28;97900;-62
2021/04/01 13:19:33;;;;;;;6.63;4.70;;;;;;;24.69;51.18;100535.81;4839014;28;98360;-65
2021/04/01 13:26:55;;;;;;;6.22;4.18;;;;;;;24.30;52.23;100540.41;4836357;28;97808;-65